Time;durP1;ratioP1;P1;durP2;ratioP2;P2;SDS_P1;SDS_P2;PMS_P1;PMS_P2;Temp;Humidity;BMP_temperature;BMP_pressure;BME280_temperature;BME280_humidity;BME280_pressure;Samples;Min_cycle;Max_cycle;Signal;HPM_P1;HPM_P2
2021/12/15 00:00:47;;;;;;;27.83;21.88;;;;;;;9.60;100.00;102829.69;4878671;29;20559;-49
2021/12/15 00:03:36;;;;;;;26.45;20.98;;;;;;;9.59;100.00;102823.38;4878013;29;20037;-49
2021/12/15 00:06:24;;;;;;;25.73;20.55;;;;;;;9.60;100.00;102822.34;4878329;29;20072;-50
2021/12/15 00:09:13;;;;;;;23.65;19.05;;;;;;;9.60;100.00;102819.63;4878232;29;20119;-51
2021/12/15 00:12:04;;;;;;;24.30;17.77;;;;;;;9.60;100.00;102822.34;4878870;29;20153;-50
2021/12/15 00:14:52;;;;;;;24.65;19.80;;;;;;;9.61;100.00;102823.16;4878316;29;20049;-48
2021/12/15 00:17:40;;;;;;;26.95;20.98;;;;;;;9.58;100.00;102819.00;4878883;29;20412;-52
2021/12/15 00:20:29;;;;;;;26.55;19.63;;;;;;;9.58;100.00;102819.00;4878660;29;20115;-47
2021/12/15 00:23:17;;;;;;;24.35;19.05;;;;;;;9.57;100.00;102820.06;4877470;29;20053;-52
2021/12/15 00:26:05;;;;;;;26.15;20.15;;;;;;;9.57;100.00;102817.34;4877880;29;20052;-49
2021/12/15 00:28:53;;;;;;;29.17;22.10;;;;;;;9.57;100.00;102816.47;4859332;29;20428;-50
2021/12/15 00:31:45;;;;;;;26.65;20.55;;;;;;;9.57;100.00;102819.19;4878456;29;20064;-50
2021/12/15 00:34:37;;;;;;;18.67;15.05;;;;;;;9.58;100.00;102820.88;4864610;29;20053;-50
2021/12/15 00:37:25;;;;;;;23.98;18.63;;;;;;;9.60;100.00;102821.50;4876034;29;20053;-51
2021/12/15 00:40:16;;;;;;;26.48;20.55;;;;;;;9.60;100.00;102821.50;4876859;29;20049;-49
2021/12/15 00:43:05;;;;;;;28.85;21.52;;;;;;;9.58;100.00;102820.88;4876728;29;20136;-47
2021/12/15 00:45:53;;;;;;;24.65;20.05;;;;;;;9.57;100.00;102814.59;4876724;29;20053;-52
2021/12/15 00:48:42;;;;;;;25.02;19.67;;;;;;;9.59;100.00;102814.38;4876291;29;20048;-52
2021/12/15 00:51:29;;;;;;;26.15;20.50;;;;;;;9.59;100.00;102817.09;4862414;29;20127;-50
2021/12/15 00:54:17;;;;;;;25.08;19.73;;;;;;;9.57;100.00;102819.19;4878789;29;20056;-50
2021/12/15 00:57:05;;;;;;;20.02;15.50;;;;;;;9.62;100.00;102813.97;4878815;29;20048;-50
2021/12/15 00:59:53;;;;;;;24.60;18.65;;;;;;;9.61;100.00;102809.56;4861957;29;20059;-47
2021/12/15 01:02:41;;;;;;;24.92;20.60;;;;;;;9.60;100.00;102810.63;4865254;29;20049;-52
2021/12/15 01:05:33;;;;;;;27.73;20.63;;;;;;;9.59;100.00;102811.66;4878697;29;20057;-47
2021/12/15 01:08:05;;;;;;;24.35;19.10;;;;;;;9.58;100.00;102810.81;4878825;29;20059;-48
2021/12/15 01:20:20;;;;;;;23.30;17.98;;;;;;;9.61;100.00;102820.44;4875128;29;20052;-51
2021/12/15 01:23:13;;;;;;;25.48;19.20;;;;;;;9.60;100.00;102818.78;4878257;29;20060;-51
2021/12/15 01:26:08;;;;;;;25.38;18.35;;;;;;;9.60;100.00;102818.78;4878786;29;20515;-51
2021/12/15 01:28:56;;;;;;;26.73;20.90;;;;;;;9.59;100.00;102815.22;4877597;29;20534;-47
2021/12/15 01:31:43;;;;;;;26.48;20.77;;;;;;;9.59;100.00;102814.38;4864322;29;20056;-56
2021/12/15 01:34:32;;;;;;;24.65;19.27;;;;;;;9.58;100.00;102820.88;4875240;29;20064;-50
2021/12/15 01:37:20;;;;;;;26.60;20.05;;;;;;;9.57;100.00;102819.19;4875320;29;20080;-53
2021/12/15 01:40:16;;;;;;;22.15;17.20;;;;;;;9.58;100.00;102815.44;4876528;29;20049;-51
2021/12/15 01:43:22;;;;;;;21.20;15.73;;;;;;;9.63;100.00;102820.25;4877394;29;20093;-54
2021/12/15 01:49:02;;;;;;;23.15;17.65;;;;;;;9.62;100.00;102821.28;4878490;29;20059;-51
2021/12/15 01:51:50;;;;;;;24.58;18.33;;;;;;;9.59;100.00;102819.81;4877602;29;20053;-53
2021/12/15 01:54:40;;;;;;;23.15;17.45;;;;;;;9.59;100.00;102822.53;4878586;29;20053;-52
2021/12/15 01:57:31;;;;;;;27.33;19.98;;;;;;;9.60;100.00;102824.22;4851440;29;20057;-48
2021/12/15 02:00:32;;;;;;;22.70;17.98;;;;;;;9.60;100.00;102824.22;4856360;29;20456;-48
2021/12/15 02:03:20;;;;;;;24.17;18.63;;;;;;;9.58;100.00;102829.03;4854188;29;20045;-52
2021/12/15 02:06:10;;;;;;;24.15;18.67;;;;;;;9.60;100.00;102835.13;4862659;29;20049;-48
2021/12/15 02:08:57;;;;;;;24.25;18.48;;;;;;;9.60;100.00;102832.41;4878092;29;20473;-50
2021/12/15 02:11:45;;;;;;;26.02;19.73;;;;;;;9.58;100.00;102837.22;4879142;29;20049;-52
2021/12/15 02:14:34;;;;;;;26.27;20.40;;;;;;;9.56;100.00;102831.97;4880206;29;20170;-48
2021/12/15 02:17:22;;;;;;;27.23;20.90;;;;;;;9.57;100.00;102843.69;4865790;29;20063;-47
2021/12/15 02:20:12;;;;;;;25.52;20.15;;;;;;;9.58;100.00;102842.66;4879236;29;20441;-50
2021/12/15 02:23:00;;;;;;;25.00;18.85;;;;;;;9.57;100.00;102840.97;4867410;29;20044;-47
2021/12/15 02:25:49;;;;;;;25.33;19.45;;;;;;;9.59;100.00;102838.88;4881290;29;20126;-48
2021/12/15 02:28:39;;;;;;;24.73;19.00;;;;;;;9.58;100.00;102842.66;4867706;29;20053;-49
2021/12/15 02:37:17;;;;;;;23.30;17.90;;;;;;;9.57;100.00;102849.13;4864444;29;20057;-51
2021/12/15 02:40:10;;;;;;;24.13;18.38;;;;;;;9.59;100.00;102844.31;4863876;29;20049;-49
2021/12/15 02:42:59;;;;;;;20.55;16.55;;;;;;;9.57;100.00;102838.25;4866809;29;20144;-49
2021/12/15 02:45:46;;;;;;;26.48;18.02;;;;;;;9.58;100.00;102842.66;4880961;29;20061;-48
2021/12/15 02:48:34;;;;;;;29.63;21.40;;;;;;;9.56;100.00;102844.75;4880517;29;20121;-48
2021/12/15 02:51:23;;;;;;;27.58;20.52;;;;;;;9.55;100.00;102843.09;4880470;29;20117;-49
2021/12/15 02:54:12;;;;;;;27.48;21.48;;;;;;;9.55;100.00;102834.91;4867466;29;20055;-47
2021/12/15 02:57:06;;;;;;;27.20;20.40;;;;;;;9.55;100.00;102837.63;4880890;29;20053;-46
2021/12/15 03:05:57;;;;;;;24.65;17.85;;;;;;;9.59;100.00;102830.69;4880620;29;20512;-48
2021/12/15 03:17:56;;;;;;;27.08;20.17;;;;;;;9.58;100.00;102834.50;4868888;29;20530;-49
2021/12/15 03:20:27;;;;;;;26.17;17.77;;;;;;;9.57;100.00;102830.94;4880886;29;20060;-45
2021/12/15 03:23:20;;;;;;;27.52;20.85;;;;;;;9.55;100.00;102824.03;4879342;29;20064;-48
2021/12/15 03:26:10;;;;;;;23.23;16.23;;;;;;;9.57;100.00;102824.63;4880301;29;20049;-49
2021/12/15 03:38:03;;;;;;;23.90;17.25;;;;;;;9.60;100.00;102824.22;4879808;29;20136;-47
2021/12/15 03:40:51;;;;;;;26.00;17.33;;;;;;;9.59;100.00;102830.69;4864275;29;20112;-47
2021/12/15 03:43:39;;;;;;;27.92;19.85;;;;;;;9.57;100.00;102827.34;4873073;29;20427;-47
2021/12/15 03:46:26;;;;;;;21.13;15.70;;;;;;;9.57;100.00;102827.34;4879649;29;20045;-47
2021/12/15 03:49:07;;;;;;;26.23;20.27;;;;;;;9.58;100.00;102837.22;4863050;29;20136;-49
2021/12/15 03:51:55;;;;;;;31.80;23.25;;;;;;;9.55;100.00;102840.38;4880089;29;20109;-49
2021/12/15 03:54:43;;;;;;;29.33;21.95;;;;;;;9.54;100.00;102844.94;4879442;29;20453;-50
2021/12/15 03:57:12;;;;;;;27.63;21.60;;;;;;;9.54;100.00;102850.38;4862945;29;20049;-48
2021/12/15 03:59:59;;;;;;;28.95;20.27;;;;;;;9.55;100.00;102853.97;4879770;29;20041;-48
2021/12/15 04:02:48;;;;;;;28.25;19.95;;;;;;;9.54;100.00;102844.94;4879299;29;20504;-51
2021/12/15 04:05:36;;;;;;;29.23;21.90;;;;;;;9.54;100.00;102846.84;4879622;29;20053;-49
2021/12/15 04:08:24;;;;;;;28.10;19.80;;;;;;;9.54;100.00;102858.56;4878684;29;20061;-53
2021/12/15 04:11:14;;;;;;;25.92;19.05;;;;;;;9.56;100.00;102851.00;4877501;29;20053;-46
2021/12/15 04:14:08;;;;;;;24.73;18.08;;;;;;;9.58;100.00;102848.09;4876831;29;20071;-48
2021/12/15 04:17:05;;;;;;;27.23;18.40;;;;;;;9.58;100.00;102853.53;4879259;29;20052;-54
2021/12/15 04:19:56;;;;;;;26.58;20.10;;;;;;;9.58;100.00;102856.25;4879088;29;20453;-47
2021/12/15 04:22:44;;;;;;;27.02;21.02;;;;;;;9.57;100.00;102857.28;4878718;29;20101;-52
2021/12/15 04:25:36;;;;;;;24.08;17.05;;;;;;;9.57;100.00;102857.28;4879317;29;20112;-49
2021/12/15 04:28:27;;;;;;;24.67;18.98;;;;;;;9.56;100.00;102855.63;4879183;29;20064;-47
2021/12/15 04:31:18;;;;;;;25.60;19.33;;;;;;;9.56;100.00;102855.63;4878990;29;20075;-49
2021/12/15 04:34:08;;;;;;;26.33;19.85;;;;;;;9.57;100.00;102857.28;4875559;29;20053;-49
2021/12/15 04:36:56;;;;;;;28.50;20.95;;;;;;;9.55;100.00;102856.69;4879126;29;20506;-51
2021/12/15 04:39:43;;;;;;;26.70;20.85;;;;;;;9.55;100.00;102860.25;4860410;29;20053;-47
2021/12/15 04:42:32;;;;;;;29.88;21.45;;;;;;;9.54;100.00;102850.38;4868511;29;20048;-49
2021/12/15 04:45:21;;;;;;;27.08;20.10;;;;;;;9.52;100.00;102860.63;4878906;29;20116;-48
2021/12/15 04:48:10;;;;;;;27.02;20.95;;;;;;;9.53;100.00;102858.78;4878591;29;20064;-49
2021/12/15 04:50:58;;;;;;;27.48;20.98;;;;;;;9.54;100.00;102865.88;4876447;29;20057;-51
2021/12/15 04:53:46;;;;;;;26.95;19.77;;;;;;;9.55;100.00;102867.56;4876080;29;20060;-50
2021/12/15 04:56:34;;;;;;;29.05;21.08;;;;;;;9.54;100.00;102863.16;4876198;29;20053;-49
2021/12/15 04:59:22;;;;;;;28.17;20.17;;;;;;;9.53;100.00;102866.94;4876313;29;20567;-46
2021/12/15 05:02:12;;;;;;;29.23;20.70;;;;;;;9.54;100.00;102879.50;4876559;29;20128;-44
2021/12/15 05:05:00;;;;;;;27.02;20.42;;;;;;;9.54;100.00;102872.16;4876058;29;20052;-46
2021/12/15 05:07:49;;;;;;;28.33;20.45;;;;;;;9.56;100.00;102874.69;4878691;29;20045;-45
2021/12/15 05:10:38;;;;;;;25.73;19.70;;;;;;;9.55;100.00;102876.56;4876268;29;20057;-46
2021/12/15 05:13:27;;;;;;;27.38;19.17;;;;;;;9.55;100.00;102879.28;4878140;29;20057;-48
2021/12/15 05:16:16;;;;;;;29.75;19.77;;;;;;;9.56;100.00;102877.41;4866157;29;20045;-47
2021/12/15 05:19:04;;;;;;;23.40;18.10;;;;;;;9.57;100.00;102879.06;4878599;29;20049;-50
2021/12/15 05:21:52;;;;;;;24.88;19.50;;;;;;;9.55;100.00;102875.75;4878433;29;20049;-48
2021/12/15 05:24:42;;;;;;;26.95;20.17;;;;;;;9.56;100.00;102880.13;4878255;29;20135;-49
2021/12/15 05:27:29;;;;;;;25.67;19.38;;;;;;;9.55;100.00;102884.72;4860050;29;20058;-46
2021/12/15 05:30:18;;;;;;;25.35;18.90;;;;;;;9.57;100.00;102884.50;4857813;29;20062;-48
2021/12/15 05:33:06;;;;;;;24.00;17.35;;;;;;;9.57;100.00;102882.66;4857605;29;20533;-52
2021/12/15 05:35:56;;;;;;;25.17;19.42;;;;;;;9.57;100.00;102882.66;4868943;29;20164;-48
2021/12/15 05:38:43;;;;;;;25.15;19.80;;;;;;;9.57;100.00;102889.94;4878158;29;20061;-48
2021/12/15 05:41:31;;;;;;;24.35;18.65;;;;;;;9.57;100.00;102888.09;4875816;29;20049;-46
2021/12/15 05:44:21;;;;;;;27.67;19.02;;;;;;;9.58;100.00;102886.19;4878017;29;20061;-49
2021/12/15 05:47:09;;;;;;;26.98;19.85;;;;;;;9.58;100.00;102883.47;4879996;29;20085;-47
2021/12/15 05:49:57;;;;;;;24.27;19.17;;;;;;;9.58;100.00;102891.63;4881602;29;20057;-49
2021/12/15 05:52:44;;;;;;;23.02;18.23;;;;;;;9.57;100.00;102890.81;4879557;29;20056;-48
2021/12/15 05:55:33;;;;;;;26.10;18.58;;;;;;;9.58;100.00;102891.63;4871495;29;20049;-49
2021/12/15 05:58:21;;;;;;;34.05;17.65;;;;;;;9.57;100.00;102889.94;4879109;29;20076;-48
2021/12/15 06:01:07;;;;;;;24.70;18.45;;;;;;;9.58;100.00;102889.75;4865333;29;20105;-47
2021/12/15 06:03:55;;;;;;;28.13;20.83;;;;;;;9.60;100.00;102889.56;4881297;29;20053;-47
2021/12/15 06:06:43;;;;;;;27.45;20.05;;;;;;;9.55;100.00;102890.19;4881255;29;20108;-48
2021/12/15 06:09:32;;;;;;;31.05;21.65;;;;;;;9.53;100.00;102891.44;4875738;29;20535;-47
2021/12/15 06:12:19;;;;;;;27.60;21.30;;;;;;;9.50;100.00;102895.41;4865872;29;20129;-48
2021/12/15 06:15:08;;;;;;;30.05;22.25;;;;;;;9.48;100.00;102894.78;4876679;29;20061;-49
2021/12/15 06:18:00;;;;;;;21.08;15.50;;;;;;;9.59;100.00;102893.31;4878288;29;20053;-48
2021/12/15 06:20:50;;;;;;;30.42;21.73;;;;;;;9.69;100.00;102899.19;4880515;29;20048;-48
2021/12/15 06:23:38;;;;;;;25.88;19.05;;;;;;;9.62;100.00;102909.22;4880320;29;20133;-49
2021/12/15 06:26:25;;;;;;;30.98;21.98;;;;;;;9.61;100.00;102915.72;4880056;29;20133;-46
2021/12/15 06:29:13;;;;;;;30.63;21.55;;;;;;;9.60;100.00;102916.75;4876442;29;20105;-49
2021/12/15 06:32:01;;;;;;;28.80;20.75;;;;;;;9.61;100.00;102923.88;4878341;29;20110;-50
2021/12/15 06:34:49;;;;;;;27.98;19.98;;;;;;;9.63;100.00;102916.34;4880095;29;20108;-49
2021/12/15 06:37:37;;;;;;;30.15;20.65;;;;;;;9.60;100.00;102922.22;4878881;29;20049;-49
2021/12/15 06:40:18;;;;;;;28.70;20.40;;;;;;;9.63;100.00;102921.78;4863403;29;20048;-45
2021/12/15 06:43:06;;;;;;;29.45;21.08;;;;;;;9.62;100.00;102914.69;4879827;29;20052;-49
2021/12/15 06:46:21;;;;;;;27.58;20.17;;;;;;;9.65;100.00;102916.97;4880325;29;20053;-52
2021/12/15 07:00:54;;;;;;;28.88;18.38;;;;;;;9.67;100.00;102920.31;4876581;29;20064;-48
2021/12/15 07:03:42;;;;;;;26.17;19.40;;;;;;;9.67;100.00;102925.78;4879421;29;20109;-45
2021/12/15 07:06:30;;;;;;;26.38;17.85;;;;;;;9.68;100.00;102930.16;4879333;29;20508;-45
2021/12/15 07:09:18;;;;;;;28.48;19.70;;;;;;;9.71;100.00;102924.28;4865267;29;21784;-44
2021/12/15 07:12:06;;;;;;;27.13;17.85;;;;;;;9.67;100.00;102928.50;4879048;29;20056;-47
2021/12/15 07:14:54;;;;;;;26.63;19.05;;;;;;;9.66;100.00;102936.84;4879959;29;20454;-46
2021/12/15 07:17:45;;;;;;;32.35;21.88;;;;;;;9.70;100.00;102933.50;4861852;29;20102;-49
2021/12/15 07:20:47;;;;;;;31.88;22.52;;;;;;;9.68;100.00;102940.22;4859167;29;20049;-45
2021/12/15 07:23:36;;;;;;;27.17;20.02;;;;;;;9.68;100.00;102942.94;4859178;29;20049;-49
2021/12/15 07:26:23;;;;;;;34.10;22.10;;;;;;;9.66;100.00;102943.13;4869173;29;20412;-49
2021/12/15 07:29:11;;;;;;;32.35;22.45;;;;;;;9.64;100.00;102945.22;4880152;29;20049;-49
2021/12/15 07:31:56;;;;;;;30.50;20.80;;;;;;;9.63;100.00;102940.00;4863344;29;20071;-50
2021/12/15 07:34:44;;;;;;;32.97;22.50;;;;;;;9.63;100.00;102938.13;4879964;29;20049;-49
2021/12/15 07:37:35;;;;;;;32.63;22.17;;;;;;;9.64;100.00;102944.38;4879443;29;20089;-49
2021/12/15 07:40:24;;;;;;;28.02;18.58;;;;;;;9.72;100.00;102945.03;4866418;29;20045;-51
2021/12/15 07:43:24;;;;;;;21.77;14.85;;;;;;;9.78;100.00;102944.16;4878970;29;20049;-47
2021/12/15 07:46:12;;;;;;;24.63;16.48;;;;;;;9.78;100.00;102948.78;4867629;29;20041;-51
2021/12/15 07:49:00;;;;;;;27.90;17.23;;;;;;;9.89;100.00;102947.31;4877605;29;20065;-48
2021/12/15 07:51:48;;;;;;;24.27;16.73;;;;;;;9.87;100.00;102949.41;4877648;29;20049;-49
2021/12/15 07:54:37;;;;;;;32.40;21.25;;;;;;;9.82;100.00;102950.88;4879673;29;20057;-49
2021/12/15 07:57:28;;;;;;;34.75;21.95;;;;;;;9.74;100.00;102951.09;4879486;29;20389;-44
2021/12/15 08:00:17;;;;;;;21.25;14.18;;;;;;;9.74;100.00;102951.09;4861261;29;20072;-48
2021/12/15 08:03:05;;;;;;;23.48;15.75;;;;;;;9.93;100.00;102954.88;4847285;29;20053;-45
2021/12/15 08:05:53;;;;;;;28.90;17.13;;;;;;;9.95;100.00;102958.19;4861259;29;20069;-47
2021/12/15 08:08:42;;;;;;;26.10;18.63;;;;;;;9.87;100.00;102961.13;4865745;29;20128;-47
2021/12/15 08:11:29;;;;;;;32.22;23.08;;;;;;;9.78;100.00;102963.22;4879648;29;20093;-47
2021/12/15 08:14:17;;;;;;;33.65;21.80;;;;;;;9.73;100.00;102965.75;4879401;29;20572;-49
2021/12/15 08:17:05;;;;;;;37.10;27.08;;;;;;;9.68;100.00;102962.81;4877029;29;20052;-47
2021/12/15 08:19:53;;;;;;;40.10;26.73;;;;;;;9.64;100.00;102967.00;4879204;29;20053;-49
2021/12/15 08:22:41;;;;;;;36.97;24.63;;;;;;;9.64;100.00;102969.72;4870214;29;20109;-51
2021/12/15 08:25:29;;;;;;;38.00;27.00;;;;;;;9.64;100.00;102975.16;4877151;29;20052;-50
2021/12/15 08:28:18;;;;;;;33.95;22.10;;;;;;;9.66;100.00;102969.50;4879021;29;20057;-51
2021/12/15 08:31:06;;;;;;;39.33;26.63;;;;;;;9.65;100.00;102968.69;4879243;29;20053;-49
2021/12/15 08:33:54;;;;;;;36.88;25.63;;;;;;;9.73;100.00;102975.81;4879096;29;20089;-46
2021/12/15 08:36:42;;;;;;;39.65;24.60;;;;;;;9.84;100.00;102974.31;4879094;29;20136;-46
2021/12/15 08:39:29;;;;;;;39.88;22.88;;;;;;;9.81;100.00;102973.72;4879342;29;20424;-49
2021/12/15 08:42:17;;;;;;;41.13;25.20;;;;;;;9.87;100.00;102971.19;4878571;29;20064;-50
2021/12/15 08:45:06;;;;;;;36.67;23.42;;;;;;;9.81;100.00;102979.16;4879056;29;20527;-49
2021/12/15 08:47:57;;;;;;;33.88;21.98;;;;;;;9.76;100.00;102981.66;4879240;29;20080;-49
2021/12/15 08:50:45;;;;;;;41.97;26.23;;;;;;;9.78;100.00;102978.72;4878755;29;20086;-50
2021/12/15 08:53:33;;;;;;;39.10;18.65;;;;;;;9.87;100.00;102965.75;4876697;29;20511;-49
2021/12/15 08:56:21;;;;;;;28.60;18.58;;;;;;;9.88;100.00;102975.59;4879023;29;20104;-47
2021/12/15 08:59:09;;;;;;;35.00;24.02;;;;;;;9.80;100.00;102977.47;4876452;29;20408;-47
2021/12/15 09:01:57;;;;;;;35.20;20.23;;;;;;;9.82;100.00;102971.81;4864691;29;20101;-48
2021/12/15 09:04:45;;;;;;;33.80;19.77;;;;;;;9.97;100.00;102977.03;4879018;29;20128;-49
2021/12/15 09:07:33;;;;;;;34.15;18.92;;;;;;;9.99;100.00;102974.97;4878655;29;20056;-46
2021/12/15 09:10:19;;;;;;;39.08;27.30;;;;;;;9.97;100.00;102977.88;4862457;29;20045;-46
2021/12/15 09:13:09;;;;;;;37.55;25.38;;;;;;;9.91;100.00;102991.50;4878605;29;20049;-48
2021/12/15 09:16:00;;;;;;;38.47;25.55;;;;;;;9.86;100.00;102983.97;4878621;29;20049;-47
2021/12/15 09:18:49;;;;;;;37.88;22.23;;;;;;;9.87;100.00;102992.97;4878598;29;20388;-47
2021/12/15 09:21:38;;;;;;;33.28;20.45;;;;;;;9.91;100.00;102996.94;4878528;29;20062;-47
2021/12/15 09:24:26;;;;;;;35.92;25.67;;;;;;;9.86;100.00;102994.00;4882495;29;20056;-47
2021/12/15 09:27:13;;;;;;;37.95;27.40;;;;;;;9.87;100.00;102998.44;4882286;29;20045;-48
2021/12/15 09:30:02;;;;;;;32.47;22.60;;;;;;;9.88;100.00;102989.19;4882513;29;20057;-48
2021/12/15 09:32:50;;;;;;;36.38;26.65;;;;;;;9.84;100.00;102998.81;4882320;29;20056;-46
2021/12/15 09:35:38;;;;;;;39.58;28.33;;;;;;;9.81;100.00;103000.09;4882142;29;20065;-51
2021/12/15 09:38:26;;;;;;;26.40;14.70;;;;;;;9.82;100.00;102997.16;4882628;29;20045;-49
2021/12/15 09:41:15;;;;;;;41.25;29.52;;;;;;;9.79;100.00;103008.47;4882678;29;20061;-48
2021/12/15 09:44:09;;;;;;;41.08;29.52;;;;;;;9.74;100.00;103008.28;4881453;29;20503;-48
2021/12/15 09:47:19;;;;;;;41.15;28.10;;;;;;;9.72;100.00;103006.81;4869119;29;20065;-47
2021/12/15 10:05:34;;;;;;;42.72;30.13;;;;;;;9.74;100.00;103026.47;4873723;29;20053;-49
2021/12/15 10:11:46;;;;;;;40.63;29.55;;;;;;;9.77;100.00;103015.19;4881291;29;20053;-47
2021/12/15 10:17:52;;;;;;;43.05;30.85;;;;;;;9.78;100.00;103020.41;4879330;29;20081;-47
2021/12/15 10:20:40;;;;;;;40.08;29.52;;;;;;;9.78;100.00;103019.56;4875026;29;20060;-48
2021/12/15 10:23:36;;;;;;;42.47;30.02;;;;;;;9.78;100.00;103017.66;4871740;29;20072;-49
2021/12/15 10:26:24;;;;;;;41.33;29.20;;;;;;;9.80;100.00;103021.03;4859065;29;20080;-50
2021/12/15 10:29:12;;;;;;;39.80;28.98;;;;;;;9.80;100.00;103012.88;4862291;29;20505;-46
2021/12/15 10:32:03;;;;;;;41.92;29.75;;;;;;;9.80;100.00;103021.03;4880468;29;20069;-52
2021/12/15 10:35:07;;;;;;;38.72;28.65;;;;;;;9.82;100.00;103016.22;4879664;29;20057;-47
2021/12/15 10:38:18;;;;;;;41.80;29.55;;;;;;;9.82;100.00;103018.94;4879784;29;20531;-50
2021/12/15 10:41:10;;;;;;;42.55;30.75;;;;;;;9.84;100.00;103015.16;4880962;29;20151;-47
2021/12/15 10:44:04;;;;;;;38.60;28.88;;;;;;;9.85;100.00;103017.69;4880661;29;20053;-48
2021/12/15 10:46:56;;;;;;;39.90;28.48;;;;;;;9.86;100.00;103027.53;4886534;29;20049;-51
2021/12/15 10:49:44;;;;;;;36.45;27.17;;;;;;;9.88;100.00;103009.09;4880165;29;20492;-52
2021/12/15 10:52:34;;;;;;;37.88;29.88;;;;;;;9.89;100.00;103015.41;4880448;29;20393;-49
2021/12/15 10:55:36;;;;;;;40.55;29.05;;;;;;;9.91;100.00;103024.16;4880491;29;20132;-49
2021/12/15 10:58:36;;;;;;;36.88;28.85;;;;;;;9.92;100.00;103023.13;4879708;29;20053;-50
2021/12/15 11:01:55;;;;;;;38.60;29.55;;;;;;;9.94;100.00;103038.22;4879466;29;20053;-50
2021/12/15 11:04:49;;;;;;;34.30;26.08;;;;;;;9.99;100.00;103024.81;4880724;29;20045;-50
2021/12/15 11:07:48;;;;;;;26.35;14.80;;;;;;;10.08;100.00;103022.72;4880449;29;20076;-53
2021/12/15 11:10:38;;;;;;;36.78;29.52;;;;;;;10.05;100.00;103023.13;4873073;29;20064;-50
2021/12/15 11:13:30;;;;;;;33.60;25.42;;;;;;;10.05;100.00;103017.66;4879019;29;20520;-54
2021/12/15 11:16:29;;;;;;;38.28;28.20;;;;;;;10.04;100.00;103016.00;4541827;29;9999962;-53
2021/12/15 11:19:43;;;;;;;32.75;26.00;;;;;;;10.11;100.00;103014.13;4877897;29;20564;-47
2021/12/15 11:22:35;;;;;;;33.38;27.27;;;;;;;10.09;100.00;103010.75;4878770;29;20127;-48
2021/12/15 11:25:39;;;;;;;33.55;27.10;;;;;;;10.09;100.00;103009.94;4878820;29;20057;-48
2021/12/15 11:28:27;;;;;;;36.30;27.30;;;;;;;10.10;100.00;103009.72;4867968;29;20052;-48
2021/12/15 11:31:18;;;;;;;36.10;28.27;;;;;;;10.13;100.00;103008.47;4877829;29;20053;-48
2021/12/15 11:34:06;;;;;;;38.10;29.75;;;;;;;10.11;100.00;103011.41;4878553;29;20136;-48
2021/12/15 11:36:54;;;;;;;35.40;28.10;;;;;;;10.15;100.00;103012.66;4876942;29;20053;-50
2021/12/15 11:39:42;;;;;;;37.72;28.67;;;;;;;10.14;100.00;103010.97;4874924;29;20491;-51
2021/12/15 11:42:29;;;;;;;40.00;29.25;;;;;;;10.13;100.00;103009.31;4855043;29;20058;-48
2021/12/15 11:45:18;;;;;;;36.47;28.88;;;;;;;10.13;100.00;103005.75;4859436;29;20119;-50
2021/12/15 11:48:17;;;;;;;26.27;18.88;;;;;;;10.15;100.00;103012.66;4880410;29;20080;-48
2021/12/15 11:51:07;;;;;;;30.52;24.40;;;;;;;10.16;100.00;103005.31;4859551;29;20057;-51
2021/12/15 11:53:55;;;;;;;35.35;28.52;;;;;;;10.16;100.00;103002.59;4861598;29;20058;-49
2021/12/15 11:56:43;;;;;;;34.78;27.40;;;;;;;10.18;100.00;103006.78;4877561;29;20524;-49
2021/12/15 11:59:42;;;;;;;24.27;18.75;;;;;;;10.22;100.00;102997.13;4875121;29;20686;-49
2021/12/15 12:02:35;;;;;;;31.42;24.63;;;;;;;10.24;100.00;102996.91;4868377;29;20064;-48
2021/12/15 12:05:26;;;;;;;34.88;28.95;;;;;;;10.23;100.00;102998.81;4878077;29;20060;-47
2021/12/15 12:08:14;;;;;;;34.13;27.95;;;;;;;10.24;100.00;102997.75;4877223;29;20520;-46
2021/12/15 12:11:14;;;;;;;33.97;26.75;;;;;;;10.22;100.00;103002.59;4877725;29;20539;-48
2021/12/15 12:14:02;;;;;;;33.83;26.08;;;;;;;10.23;100.00;102996.06;4877657;29;20061;-47
2021/12/15 12:16:49;;;;;;;31.75;26.95;;;;;;;10.26;100.00;102997.53;4874717;29;20059;-51
2021/12/15 12:19:46;;;;;;;32.55;25.52;;;;;;;10.27;100.00;102999.22;4863435;29;20117;-51
2021/12/15 12:22:36;;;;;;;29.98;24.63;;;;;;;10.24;100.00;102995.00;4877175;29;20048;-50
2021/12/15 12:25:26;;;;;;;33.90;26.30;;;;;;;10.26;100.00;102993.97;4877656;29;20049;-52
2021/12/15 12:28:27;;;;;;;33.42;24.75;;;;;;;10.31;100.00;102984.16;4877134;29;20385;-49
2021/12/15 12:31:17;;;;;;;27.70;21.65;;;;;;;10.35;100.00;102987.28;4874934;29;20072;-52
2021/12/15 12:34:05;;;;;;;30.48;23.80;;;;;;;10.31;100.00;102989.59;4877200;29;20088;-50
2021/12/15 12:36:53;;;;;;;25.00;18.33;;;;;;;10.44;100.00;102983.28;4876894;29;20441;-44
2021/12/15 12:39:43;;;;;;;32.72;24.92;;;;;;;10.39;100.00;102977.63;4862764;29;20052;-50
2021/12/15 12:42:34;;;;;;;30.45;24.45;;;;;;;10.33;100.00;102982.03;4878549;29;20053;-50
2021/12/15 12:45:38;;;;;;;31.52;25.15;;;;;;;10.31;100.00;102977.88;4878909;29;20053;-48
2021/12/15 12:48:37;;;;;;;24.92;18.73;;;;;;;10.36;100.00;102973.44;4865164;29;20099;-48
2021/12/15 13:00:50;;;;;;;30.75;24.15;;;;;;;10.28;100.00;102970.94;4876090;29;20064;-48
2021/12/15 13:03:36;;;;;;;31.38;24.33;;;;;;;10.27;100.00;102968.41;4849102;29;20164;-48
2021/12/15 13:06:30;;;;;;;31.80;23.77;;;;;;;10.24;100.00;102967.78;4878680;29;20104;-51
2021/12/15 13:09:19;;;;;;;29.65;23.90;;;;;;;10.24;100.00;102972.38;4862027;29;20045;-50
2021/12/15 13:12:27;;;;;;;30.70;24.40;;;;;;;10.26;100.00;102970.28;4877991;29;20132;-48
2021/12/15 13:15:21;;;;;;;26.95;21.67;;;;;;;10.30;100.00;102965.31;4877747;29;20404;-50
2021/12/15 13:18:13;;;;;;;23.90;19.23;;;;;;;10.31;100.00;102969.69;4859875;29;20497;-49
2021/12/15 13:21:05;;;;;;;26.73;19.83;;;;;;;10.30;100.00;102963.41;4854510;29;20085;-49
2021/12/15 13:23:58;;;;;;;30.80;22.95;;;;;;;10.32;100.00;102971.34;4859697;29;20424;-50
2021/12/15 13:29:56;;;;;;;27.67;21.38;;;;;;;10.31;100.00;102966.97;4878545;29;20049;-48
2021/12/15 13:32:48;;;;;;;28.15;20.52;;;;;;;10.35;100.00;102968.22;4878317;29;20049;-49
2021/12/15 13:35:43;;;;;;;26.30;20.40;;;;;;;10.35;100.00;102973.66;4876105;29;20049;-49
2021/12/15 13:38:43;;;;;;;27.20;20.50;;;;;;;10.38;100.00;102975.97;4875890;29;20045;-48
2021/12/15 13:44:49;;;;;;;25.17;20.48;;;;;;;10.38;100.00;102978.69;4875283;29;20041;-48
2021/12/15 13:47:44;;;;;;;25.52;19.75;;;;;;;10.41;100.00;102984.56;4881609;29;20053;-47
2021/12/15 13:50:31;;;;;;;23.67;19.27;;;;;;;10.48;100.00;102978.25;4870780;29;20501;-47
2021/12/15 13:53:31;;;;;;;23.60;18.75;;;;;;;10.43;100.00;102978.88;4875764;29;20084;-48
2021/12/15 13:56:46;;;;;;;22.95;16.45;;;;;;;10.42;100.00;102990.84;4875324;29;20057;-49
2021/12/15 13:59:34;;;;;;;25.52;18.90;;;;;;;10.39;100.00;102981.22;4860981;29;20064;-50
2021/12/15 14:02:23;;;;;;;22.27;17.45;;;;;;;10.40;100.00;102988.31;4860962;29;20045;-52
2021/12/15 14:05:17;;;;;;;22.50;16.92;;;;;;;10.39;100.00;102992.09;4870763;29;20044;-51
2021/12/15 14:08:36;;;;;;;23.35;16.83;;;;;;;10.38;100.00;102990.41;4876360;29;20201;-49
2021/12/15 14:11:30;;;;;;;24.23;16.85;;;;;;;10.38;100.00;103000.47;4790797;29;20078;-47
2021/12/15 14:14:24;;;;;;;24.92;18.83;;;;;;;10.39;100.00;102991.25;4795606;29;20051;-52
2021/12/15 14:17:12;;;;;;;20.98;16.13;;;;;;;10.40;100.00;102982.88;4794647;29;20047;-50
2021/12/15 14:19:59;;;;;;;23.15;17.15;;;;;;;10.39;100.00;102980.34;4792846;29;20070;-52
2021/12/15 14:22:47;;;;;;;20.15;16.92;;;;;;;10.41;100.00;102984.56;4804289;29;20058;-49